createdAt,value
2023-06-27T00:00:18.287Z,16.39
2023-06-27T00:01:18.395Z,16.36
2023-06-27T00:02:18.579Z,16.34
2023-06-27T00:03:18.668Z,16.31
2023-06-27T00:04:18.733Z,16.29
2023-06-27T00:05:18.835Z,16.27
2023-06-27T00:06:18.962Z,16.24
2023-06-27T00:07:19.138Z,16.22
2023-06-27T00:08:19.167Z,16.19
2023-06-27T00:09:19.319Z,16.16
2023-06-27T00:10:19.427Z,16.14
2023-06-27T00:11:19.506Z,16.11
2023-06-27T00:12:19.695Z,16.08
2023-06-27T00:13:19.813Z,16.06
2023-06-27T00:14:19.917Z,16.03
2023-06-27T00:15:20.143Z,15.99
2023-06-27T00:16:20.165Z,15.96
2023-06-27T00:17:20.376Z,15.93
2023-06-27T00:18:20.517Z,15.89
2023-06-27T00:19:20.557Z,15.86
2023-06-27T00:20:20.655Z,15.83
2023-06-27T00:21:20.756Z,15.80
2023-06-27T00:22:20.912Z,15.78
2023-06-27T00:23:21.031Z,15.76
2023-06-27T00:24:21.133Z,15.74
2023-06-27T00:25:21.285Z,15.72
2023-06-27T00:26:21.435Z,15.70
2023-06-27T00:27:21.699Z,15.68
2023-06-27T00:28:21.651Z,15.67
2023-06-27T00:29:21.809Z,15.65
2023-06-27T00:30:21.918Z,15.63
2023-06-27T00:31:22.145Z,15.62
2023-06-27T00:32:22.258Z,15.60
2023-06-27T00:33:22.293Z,15.58
2023-06-27T00:34:22.392Z,15.57
2023-06-27T00:35:22.481Z,15.56
2023-06-27T00:36:22.637Z,15.54
2023-06-27T00:37:22.738Z,15.53
2023-06-27T00:38:22.833Z,15.52
2023-06-27T00:39:22.953Z,15.51
2023-06-27T00:40:23.050Z,15.49
2023-06-27T00:41:23.204Z,15.48
2023-06-27T00:42:23.357Z,15.46
2023-06-27T00:43:23.456Z,15.45
2023-06-27T00:44:23.560Z,15.44
2023-06-27T00:45:23.651Z,15.43
2023-06-27T00:46:23.777Z,15.42
2023-06-27T00:47:23.939Z,15.41
2023-06-27T00:48:24.004Z,15.40
2023-06-27T00:49:24.131Z,15.39
2023-06-27T00:50:24.303Z,15.38
2023-06-27T00:51:24.426Z,15.37
2023-06-27T00:52:24.564Z,15.36
2023-06-27T00:53:24.659Z,15.35
2023-06-27T00:54:24.797Z,15.33
2023-06-27T00:55:24.902Z,15.31
2023-06-27T00:56:25.003Z,15.29
2023-06-27T00:57:25.086Z,15.28
2023-06-27T00:58:25.222Z,15.26
2023-06-27T00:59:25.326Z,15.25
2023-06-27T01:00:25.455Z,15.24
2023-06-27T01:01:25.610Z,15.23
2023-06-27T01:02:25.898Z,15.22
2023-06-27T01:03:25.892Z,15.21
2023-06-27T01:04:25.921Z,15.20
2023-06-27T01:05:26.054Z,15.19
2023-06-27T01:06:26.217Z,15.17
2023-06-27T01:07:26.404Z,15.16
2023-06-27T01:08:26.460Z,15.16
2023-06-27T01:09:26.553Z,15.15
2023-06-27T01:10:26.672Z,15.14
2023-06-27T01:11:26.818Z,15.13
2023-06-27T01:12:26.942Z,15.12
2023-06-27T01:13:27.025Z,15.10
2023-06-27T01:14:27.163Z,15.08
2023-06-27T01:15:27.312Z,15.06
2023-06-27T01:16:27.420Z,15.04
2023-06-27T01:17:27.597Z,15.01
2023-06-27T01:18:27.676Z,14.99
2023-06-27T01:19:27.821Z,14.97
2023-06-27T01:20:27.957Z,14.95
2023-06-27T01:21:28.116Z,14.94
2023-06-27T01:22:28.311Z,14.93
2023-06-27T01:23:28.370Z,14.91
2023-06-27T01:24:28.479Z,14.90
2023-06-27T01:25:28.625Z,14.89
2023-06-27T01:26:28.792Z,14.88
2023-06-27T01:27:28.882Z,14.86
2023-06-27T01:28:28.991Z,14.84
2023-06-27T01:29:29.104Z,14.82
2023-06-27T01:30:29.268Z,14.81
2023-06-27T01:31:29.463Z,14.80
2023-06-27T01:32:29.548Z,14.79
2023-06-27T01:33:29.596Z,14.77
2023-06-27T01:34:29.677Z,14.76
2023-06-27T01:35:29.822Z,14.74
2023-06-27T01:36:29.994Z,14.73
2023-06-27T01:37:30.160Z,14.73
2023-06-27T01:38:30.240Z,14.72
2023-06-27T01:39:30.443Z,14.72
2023-06-27T01:40:30.513Z,14.71
2023-06-27T01:41:30.718Z,14.70
2023-06-27T01:42:30.830Z,14.68
2023-06-27T01:43:30.940Z,14.66
2023-06-27T01:44:31.034Z,14.64
2023-06-27T01:45:31.206Z,14.62
2023-06-27T01:46:31.287Z,14.60
2023-06-27T01:47:31.431Z,14.59
2023-06-27T01:48:31.517Z,14.57
2023-06-27T01:49:31.656Z,14.56
2023-06-27T01:50:31.817Z,14.55
2023-06-27T01:51:31.918Z,14.54
2023-06-27T01:52:32.032Z,14.53
2023-06-27T01:53:32.153Z,14.52
2023-06-27T01:54:32.253Z,14.51
2023-06-27T01:55:32.338Z,14.50
2023-06-27T01:56:32.494Z,14.50
2023-06-27T01:57:32.634Z,14.49
2023-06-27T01:58:32.730Z,14.48
2023-06-27T01:59:32.872Z,14.47
2023-06-27T02:00:32.969Z,14.47
2023-06-27T02:01:33.175Z,14.47
2023-06-27T02:02:33.356Z,14.46
2023-06-27T02:03:33.386Z,14.45
2023-06-27T02:04:33.454Z,14.45
2023-06-27T02:05:33.588Z,14.43
2023-06-27T02:06:33.725Z,14.42
2023-06-27T02:07:33.819Z,14.41
2023-06-27T02:08:33.967Z,14.40
2023-06-27T02:09:34.102Z,14.39
2023-06-27T02:10:34.198Z,14.39
2023-06-27T02:11:34.335Z,14.39
2023-06-27T02:12:34.562Z,14.38
2023-06-27T02:13:34.599Z,14.38
2023-06-27T02:14:34.708Z,14.37
2023-06-27T02:15:34.804Z,14.37
2023-06-27T02:16:34.895Z,14.37
2023-06-27T02:17:35.075Z,14.37
2023-06-27T02:18:35.178Z,14.37
2023-06-27T02:19:35.310Z,14.37
2023-06-27T02:20:35.416Z,14.37
2023-06-27T02:21:35.561Z,14.38
2023-06-27T02:22:35.797Z,14.39
2023-06-27T02:23:35.820Z,14.39
2023-06-27T02:24:35.957Z,14.40
2023-06-27T02:25:36.234Z,14.40
2023-06-27T02:26:36.225Z,14.40
2023-06-27T02:27:36.389Z,14.40
2023-06-27T02:28:38.438Z,14.41
2023-06-27T02:29:36.591Z,14.41
2023-06-27T02:30:36.752Z,14.41
2023-06-27T02:31:36.840Z,14.42
2023-06-27T02:32:37.056Z,14.42
2023-06-27T02:33:37.067Z,14.43
2023-06-27T02:34:37.171Z,14.43
2023-06-27T02:35:37.461Z,14.43
2023-06-27T02:36:37.427Z,14.43
2023-06-27T02:37:37.603Z,14.43
2023-06-27T02:38:37.692Z,14.43
2023-06-27T02:39:37.797Z,14.44
2023-06-27T02:40:37.938Z,14.44
2023-06-27T02:41:38.037Z,14.44
2023-06-27T02:42:38.168Z,14.44
2023-06-27T02:43:38.256Z,14.45
2023-06-27T02:44:38.397Z,14.45
2023-06-27T02:45:38.871Z,14.44
2023-06-27T02:46:38.681Z,14.44
2023-06-27T02:47:38.840Z,14.43
2023-06-27T02:48:38.904Z,14.42
2023-06-27T02:49:39.006Z,14.43
2023-06-27T02:50:39.177Z,14.43
2023-06-27T02:51:39.254Z,14.44
2023-06-27T02:52:39.383Z,14.44
2023-06-27T02:53:39.484Z,14.43
2023-06-27T02:54:39.596Z,14.44
2023-06-27T02:55:40.025Z,14.44
2023-06-27T02:56:39.787Z,14.45
2023-06-27T02:57:39.937Z,14.46
2023-06-27T02:58:40.032Z,14.46
2023-06-27T02:59:40.126Z,14.46
2023-06-27T03:00:40.264Z,14.47
2023-06-27T03:01:40.403Z,14.47
2023-06-27T03:02:40.607Z,14.48
2023-06-27T03:03:40.697Z,14.49
2023-06-27T03:04:40.783Z,14.50
2023-06-27T03:05:41.204Z,14.50
2023-06-27T03:06:41.018Z,14.51
2023-06-27T03:07:41.116Z,14.51
2023-06-27T03:08:41.232Z,14.52
2023-06-27T03:09:41.332Z,14.52
2023-06-27T03:10:41.477Z,14.54
2023-06-27T03:11:41.630Z,14.55
2023-06-27T03:12:41.748Z,14.57
2023-06-27T03:13:41.941Z,14.58
2023-06-27T03:14:42.036Z,14.60
2023-06-27T03:15:42.407Z,14.60
2023-06-27T03:16:42.298Z,14.61
2023-06-27T03:17:43.031Z,14.62
2023-06-27T03:18:42.538Z,14.62
2023-06-27T03:19:44.584Z,14.63
2023-06-27T03:20:42.794Z,14.63
2023-06-27T03:21:42.915Z,14.63
2023-06-27T03:22:43.013Z,14.63
2023-06-27T03:23:43.205Z,14.64
2023-06-27T03:24:43.249Z,14.65
2023-06-27T03:25:43.344Z,14.66
2023-06-27T03:26:43.452Z,14.67
2023-06-27T03:27:43.599Z,14.68
2023-06-27T03:28:43.786Z,14.68
2023-06-27T03:29:43.898Z,14.69
2023-06-27T03:30:44.011Z,14.69
2023-06-27T03:31:44.282Z,14.69
2023-06-27T03:32:44.389Z,14.70
2023-06-27T03:33:44.485Z,14.70
2023-06-27T03:34:44.606Z,14.71
2023-06-27T03:35:44.683Z,14.71
2023-06-27T03:36:44.806Z,14.71
2023-06-27T03:37:44.935Z,14.71
2023-06-27T03:38:45.036Z,14.70
2023-06-27T03:39:45.152Z,14.70
2023-06-27T03:40:45.305Z,14.70
2023-06-27T03:41:45.448Z,14.69
2023-06-27T03:42:45.559Z,14.68
2023-06-27T03:43:45.708Z,14.67
2023-06-27T03:44:45.791Z,14.65
2023-06-27T03:45:45.892Z,14.63
2023-06-27T03:46:45.996Z,14.62
2023-06-27T03:47:46.108Z,14.61
2023-06-27T03:48:46.191Z,14.60
2023-06-27T03:49:46.297Z,14.60
2023-06-27T03:50:46.394Z,14.60
2023-06-27T03:51:46.541Z,14.59
2023-06-27T03:52:46.633Z,14.58
2023-06-27T03:53:46.848Z,14.58
2023-06-27T03:54:47.009Z,14.57
2023-06-27T03:55:47.030Z,14.57
2023-06-27T03:56:47.175Z,14.56
2023-06-27T03:57:47.313Z,14.56
2023-06-27T03:58:47.498Z,14.55
2023-06-27T03:59:47.595Z,14.54
2023-06-27T04:00:47.759Z,14.55
2023-06-27T04:01:47.842Z,14.55
2023-06-27T04:02:48.001Z,14.56
2023-06-27T04:03:48.190Z,14.56
2023-06-27T04:04:48.363Z,14.55
2023-06-27T04:05:48.335Z,14.54
2023-06-27T04:06:48.469Z,14.53
2023-06-27T04:07:48.559Z,14.52
2023-06-27T04:08:48.693Z,14.52
2023-06-27T04:09:48.793Z,14.52
2023-06-27T04:10:48.881Z,14.51
2023-06-27T04:11:49.018Z,14.51
2023-06-27T04:12:49.157Z,14.51
2023-06-27T04:13:49.336Z,14.51
2023-06-27T04:14:49.441Z,14.51
2023-06-27T04:15:49.557Z,14.51
2023-06-27T04:16:49.708Z,14.51
2023-06-27T04:17:49.913Z,14.50
2023-06-27T04:18:49.984Z,14.49
2023-06-27T04:19:50.070Z,14.48
2023-06-27T04:20:50.171Z,14.48
2023-06-27T04:21:50.315Z,14.48
2023-06-27T04:22:50.452Z,14.47
2023-06-27T04:23:50.674Z,14.48
2023-06-27T04:24:50.747Z,14.49
2023-06-27T04:25:51.761Z,14.50
2023-06-27T04:26:50.956Z,14.50
2023-06-27T04:27:51.051Z,14.49
2023-06-27T04:28:51.209Z,14.48
2023-06-27T04:29:51.311Z,14.48
2023-06-27T04:30:51.424Z,14.48
2023-06-27T04:31:51.753Z,14.48
2023-06-27T04:32:51.757Z,14.48
2023-06-27T04:33:51.868Z,14.48
2023-06-27T04:34:51.964Z,14.48
2023-06-27T04:35:52.063Z,14.47
2023-06-27T04:36:52.196Z,14.47
2023-06-27T04:37:52.264Z,14.47
2023-06-27T04:38:52.435Z,14.47
2023-06-27T04:39:52.542Z,14.47
2023-06-27T04:40:52.643Z,14.47
2023-06-27T04:41:52.792Z,14.48
2023-06-27T04:42:52.926Z,14.49
2023-06-27T04:43:53.100Z,14.51
2023-06-27T04:44:53.186Z,14.53
2023-06-27T04:45:53.301Z,14.55
2023-06-27T04:46:53.454Z,14.57
2023-06-27T04:47:53.552Z,14.57
2023-06-27T04:48:53.697Z,14.57
2023-06-27T04:49:53.804Z,14.58
2023-06-27T04:50:53.914Z,14.58
2023-06-27T04:51:54.026Z,14.59
2023-06-27T04:52:54.142Z,14.60
2023-06-27T04:53:54.288Z,14.61
2023-06-27T04:54:54.571Z,14.62
2023-06-27T04:55:54.570Z,14.62
2023-06-27T04:57:07.975Z,14.62
2023-06-27T04:57:55.832Z,14.63
2023-06-27T04:58:54.903Z,14.63
2023-06-27T04:59:55.068Z,14.65
2023-06-27T05:00:55.195Z,14.66
2023-06-27T05:01:55.251Z,14.68
2023-06-27T05:02:55.480Z,14.69
2023-06-27T05:03:55.544Z,14.71
2023-06-27T05:04:56.492Z,14.74
2023-06-27T05:05:55.890Z,14.76
2023-06-27T05:06:55.997Z,14.77
2023-06-27T05:07:56.078Z,14.79
2023-06-27T05:08:56.214Z,14.82
2023-06-27T05:09:56.307Z,14.85
2023-06-27T05:10:56.477Z,14.89
2023-06-27T05:11:56.572Z,14.91
2023-06-27T05:12:56.676Z,14.93
2023-06-27T05:13:56.784Z,14.96
2023-06-27T05:14:56.949Z,14.99
2023-06-27T05:15:57.066Z,15.02
2023-06-27T05:16:57.146Z,15.03
2023-06-27T05:17:57.420Z,15.06
2023-06-27T05:18:57.415Z,15.09
2023-06-27T05:19:57.524Z,15.12
2023-06-27T05:20:57.656Z,15.14
2023-06-27T05:21:57.757Z,15.16
2023-06-27T05:22:57.857Z,15.19
2023-06-27T05:23:57.998Z,15.22
2023-06-27T05:24:58.139Z,15.27
2023-06-27T05:25:58.331Z,15.32
2023-06-27T05:26:58.370Z,15.39
2023-06-27T05:27:58.535Z,15.47
2023-06-27T05:28:58.670Z,15.55
2023-06-27T05:29:58.768Z,15.61
2023-06-27T05:30:58.883Z,15.68
2023-06-27T05:31:58.960Z,15.76
2023-06-27T05:32:59.168Z,15.84
2023-06-27T05:33:59.192Z,15.92
2023-06-27T05:34:59.334Z,15.98
2023-06-27T05:35:59.461Z,16.04
2023-06-27T05:36:59.580Z,16.10
2023-06-27T05:37:59.696Z,16.16
2023-06-27T05:38:59.782Z,16.20
2023-06-27T05:39:59.916Z,16.22
2023-06-27T05:41:00.103Z,16.24
2023-06-27T05:42:00.197Z,16.30
2023-06-27T05:43:00.310Z,16.36
2023-06-27T05:44:00.395Z,16.42
2023-06-27T05:45:00.510Z,16.47
2023-06-27T05:46:00.770Z,16.52
2023-06-27T05:47:00.762Z,16.55
2023-06-27T05:48:00.968Z,16.55
2023-06-27T05:49:01.061Z,16.56
2023-06-27T05:50:01.203Z,16.62
2023-06-27T05:51:01.403Z,16.68
2023-06-27T05:52:01.495Z,16.70
2023-06-27T05:53:01.586Z,16.71
2023-06-27T05:54:01.761Z,16.71
2023-06-27T05:55:01.934Z,16.67
2023-06-27T05:56:01.975Z,16.65
2023-06-27T05:57:02.137Z,16.66
2023-06-27T05:58:02.228Z,16.70
2023-06-27T05:59:02.386Z,16.72
2023-06-27T06:00:02.533Z,16.73
2023-06-27T06:01:02.605Z,16.72
2023-06-27T06:02:02.737Z,16.68
2023-06-27T06:03:02.892Z,16.64
2023-06-27T06:04:03.026Z,16.63
2023-06-27T06:05:03.072Z,16.65
2023-06-27T06:06:03.168Z,16.68
2023-06-27T06:07:03.391Z,16.74
2023-06-27T06:08:03.461Z,16.81
2023-06-27T06:09:03.628Z,16.87
2023-06-27T06:10:03.767Z,16.93
2023-06-27T06:11:03.893Z,17.01
2023-06-27T06:12:04.040Z,17.10
2023-06-27T06:13:04.189Z,17.12
2023-06-27T06:14:04.298Z,17.10
2023-06-27T06:15:04.522Z,17.09
2023-06-27T06:16:04.554Z,17.05
2023-06-27T06:17:04.696Z,17.01
2023-06-27T06:18:04.885Z,17.02
2023-06-27T06:19:04.928Z,17.10
2023-06-27T06:20:05.061Z,17.19
2023-06-27T06:21:05.202Z,17.23
2023-06-27T06:22:05.378Z,17.25
2023-06-27T06:23:05.472Z,17.24
2023-06-27T06:24:05.614Z,17.20
2023-06-27T06:25:05.707Z,17.20
2023-06-27T06:26:05.852Z,17.21
2023-06-27T06:27:05.943Z,17.24
2023-06-27T06:28:06.094Z,17.28
2023-06-27T06:29:06.213Z,17.26
2023-06-27T06:30:06.375Z,17.20
2023-06-27T06:31:06.487Z,17.19
2023-06-27T06:32:06.618Z,17.26
2023-06-27T06:33:06.744Z,17.30
2023-06-27T06:34:06.801Z,17.27
2023-06-27T06:35:07.002Z,17.24
2023-06-27T06:36:07.051Z,17.23
2023-06-27T06:37:07.197Z,17.25
2023-06-27T06:38:08.556Z,17.27
2023-06-27T06:39:07.385Z,17.31
2023-06-27T06:40:07.552Z,17.41
2023-06-27T06:41:07.688Z,17.47
2023-06-27T06:42:07.874Z,17.48
2023-06-27T06:43:07.976Z,17.50
2023-06-27T06:44:08.103Z,17.53
2023-06-27T06:45:08.233Z,17.61
2023-06-27T06:46:08.466Z,17.72
2023-06-27T06:47:08.578Z,17.83
2023-06-27T06:48:08.635Z,17.92
2023-06-27T06:49:08.780Z,17.98
2023-06-27T06:50:08.933Z,18.01
2023-06-27T06:51:09.065Z,18.03
2023-06-27T06:52:09.183Z,18.10
2023-06-27T06:53:10.182Z,18.19
2023-06-27T06:54:09.384Z,18.23
2023-06-27T06:55:09.612Z,18.28
2023-06-27T06:56:09.602Z,18.32
2023-06-27T06:57:09.754Z,18.31
2023-06-27T06:58:11.772Z,18.34
2023-06-27T06:59:09.941Z,18.43
2023-06-27T07:00:10.106Z,18.53
2023-06-27T07:01:10.186Z,18.64
2023-06-27T07:02:10.329Z,18.78
2023-06-27T07:03:10.584Z,18.92
2023-06-27T07:04:10.656Z,18.97
2023-06-27T07:05:10.717Z,18.94
2023-06-27T07:06:10.826Z,18.93
2023-06-27T07:07:11.040Z,18.99
2023-06-27T07:08:11.107Z,19.05
2023-06-27T07:09:11.209Z,19.06
2023-06-27T07:10:11.302Z,19.06
2023-06-27T07:11:11.482Z,19.09
2023-06-27T07:12:11.570Z,19.12
2023-06-27T07:13:11.739Z,19.14
2023-06-27T07:14:11.798Z,19.13
2023-06-27T07:15:12.022Z,19.04
2023-06-27T07:16:12.100Z,18.95
2023-06-27T07:17:12.217Z,18.92
2023-06-27T07:18:12.367Z,18.91
2023-06-27T07:19:12.443Z,18.93
2023-06-27T07:20:12.543Z,18.96
2023-06-27T07:21:12.680Z,19.02
2023-06-27T07:22:12.797Z,19.12
2023-06-27T07:23:12.884Z,19.25
2023-06-27T07:24:13.007Z,19.32
2023-06-27T07:25:13.107Z,19.29
2023-06-27T07:26:13.216Z,19.22
2023-06-27T07:27:13.316Z,19.21
2023-06-27T07:28:13.537Z,19.29
2023-06-27T07:29:13.579Z,19.43
2023-06-27T07:30:13.688Z,19.59
2023-06-27T07:31:13.862Z,19.68
2023-06-27T07:32:13.920Z,19.73
2023-06-27T07:33:16.573Z,19.78
2023-06-27T07:34:14.230Z,19.80
2023-06-27T07:35:14.397Z,19.79
2023-06-27T07:36:14.471Z,19.79
2023-06-27T07:37:14.609Z,19.79
2023-06-27T07:38:14.765Z,19.73
2023-06-27T07:39:14.846Z,19.66
2023-06-27T07:40:14.980Z,19.62
2023-06-27T07:41:15.077Z,19.56
2023-06-27T07:42:15.199Z,19.53
2023-06-27T07:43:15.379Z,19.56
2023-06-27T07:44:15.477Z,19.62
2023-06-27T07:45:15.621Z,19.67
2023-06-27T07:46:15.786Z,19.69
2023-06-27T07:47:15.933Z,19.70
2023-06-27T07:48:16.068Z,19.75
2023-06-27T07:49:16.157Z,19.87
2023-06-27T07:50:16.310Z,20.01
2023-06-27T07:51:16.442Z,20.16
2023-06-27T07:52:16.536Z,20.28
2023-06-27T07:53:16.710Z,20.27
2023-06-27T07:54:16.799Z,20.22
2023-06-27T07:55:16.965Z,20.22
2023-06-27T07:56:17.057Z,20.22
2023-06-27T07:57:17.202Z,20.19
2023-06-27T07:58:17.416Z,20.14
2023-06-27T07:59:17.483Z,20.14
2023-06-27T08:00:17.619Z,20.19
2023-06-27T08:01:17.741Z,20.19
2023-06-27T08:02:17.915Z,20.13
2023-06-27T08:03:18.015Z,20.09
2023-06-27T08:04:18.158Z,20.06
2023-06-27T08:05:18.204Z,20.01
2023-06-27T08:06:18.356Z,20.00
2023-06-27T08:07:18.495Z,20.09
2023-06-27T08:08:19.689Z,20.24
2023-06-27T08:09:18.715Z,20.42
2023-06-27T08:10:18.844Z,20.55
2023-06-27T08:11:19.084Z,20.62
2023-06-27T08:12:19.143Z,20.68
2023-06-27T08:13:19.282Z,20.75
2023-06-27T08:14:19.404Z,20.79
2023-06-27T08:15:19.498Z,20.83
2023-06-27T08:16:19.607Z,20.90
2023-06-27T08:17:19.713Z,20.96
2023-06-27T08:18:19.882Z,20.97
2023-06-27T08:19:20.054Z,20.99
2023-06-27T08:20:20.102Z,21.08
2023-06-27T08:21:20.184Z,21.24
2023-06-27T08:22:20.294Z,21.40
2023-06-27T08:23:20.405Z,21.49
2023-06-27T08:24:20.529Z,21.40
2023-06-27T08:25:20.625Z,21.23
2023-06-27T08:26:20.780Z,21.15
2023-06-27T08:27:20.925Z,21.15
2023-06-27T08:28:21.034Z,21.17
2023-06-27T08:29:21.147Z,21.19
2023-06-27T08:30:21.253Z,21.16
2023-06-27T08:31:21.429Z,21.11
2023-06-27T08:32:21.548Z,21.08
2023-06-27T08:33:21.634Z,21.11
2023-06-27T08:34:21.739Z,21.17
2023-06-27T08:35:21.837Z,21.21
2023-06-27T08:36:21.991Z,21.16
2023-06-27T08:37:22.081Z,21.15
2023-06-27T08:38:24.088Z,21.20
2023-06-27T08:39:22.380Z,21.26
2023-06-27T08:40:22.615Z,21.33
2023-06-27T08:41:22.557Z,21.37
2023-06-27T08:42:22.671Z,21.32
2023-06-27T08:43:22.776Z,21.27
2023-06-27T08:44:22.879Z,21.15
2023-06-27T08:45:22.988Z,21.00
2023-06-27T08:46:23.072Z,20.95
2023-06-27T08:47:23.270Z,20.96
2023-06-27T08:48:23.391Z,20.96
2023-06-27T08:49:23.538Z,20.94
2023-06-27T08:50:23.650Z,20.89
2023-06-27T08:51:23.799Z,20.81
2023-06-27T08:52:23.899Z,20.77
2023-06-27T08:53:24.055Z,20.77
2023-06-27T08:54:24.156Z,20.78
2023-06-27T08:55:24.305Z,20.80
2023-06-27T08:56:24.411Z,20.79
2023-06-27T08:57:24.582Z,20.77
2023-06-27T08:58:24.667Z,20.78
2023-06-27T08:59:24.777Z,20.84
2023-06-27T09:00:24.879Z,20.92
2023-06-27T09:01:25.022Z,20.95
2023-06-27T09:02:25.227Z,20.97
2023-06-27T09:03:25.425Z,20.98
2023-06-27T09:04:25.466Z,21.00
2023-06-27T09:05:25.559Z,21.09
2023-06-27T09:06:25.815Z,21.21
2023-06-27T09:07:26.080Z,21.29
2023-06-27T09:08:25.947Z,21.36
2023-06-27T09:09:26.051Z,21.38
2023-06-27T09:10:26.144Z,21.33
2023-06-27T09:11:26.240Z,21.20
2023-06-27T09:12:26.346Z,20.98
2023-06-27T09:13:26.465Z,20.82
2023-06-27T09:14:26.613Z,20.72
2023-06-27T09:15:26.775Z,20.69
2023-06-27T09:16:26.872Z,20.75
2023-06-27T09:17:27.004Z,20.78
2023-06-27T09:18:27.078Z,20.78
2023-06-27T09:19:27.229Z,20.71
2023-06-27T09:20:27.280Z,20.63
2023-06-27T09:21:27.383Z,20.66
2023-06-27T09:22:27.551Z,20.75
2023-06-27T09:23:27.668Z,20.77
2023-06-27T09:24:27.782Z,20.81
2023-06-27T09:25:27.875Z,20.89
2023-06-27T09:26:28.022Z,21.00
2023-06-27T09:27:28.132Z,21.13
2023-06-27T09:28:28.239Z,21.18
2023-06-27T09:29:28.422Z,21.16
2023-06-27T09:30:28.530Z,21.17
2023-06-27T09:31:28.668Z,21.18
2023-06-27T09:32:28.794Z,21.19
2023-06-27T09:33:28.859Z,21.23
2023-06-27T09:34:28.957Z,21.28
2023-06-27T09:35:58.905Z,21.30
2023-06-27T09:39:29.680Z,20.60
2023-06-27T09:40:29.736Z,20.52
2023-06-27T09:41:29.880Z,20.46
2023-06-27T09:42:30.016Z,20.44
2023-06-27T09:43:30.117Z,20.49
2023-06-27T09:44:30.477Z,20.55
2023-06-27T09:45:30.407Z,20.65
2023-06-27T09:46:30.677Z,20.79
2023-06-27T09:47:30.697Z,20.95
2023-06-27T09:48:30.780Z,21.05
2023-06-27T09:49:30.988Z,21.08
2023-06-27T09:50:31.039Z,21.07
2023-06-27T09:51:31.196Z,21.09
2023-06-27T09:52:31.388Z,21.15
2023-06-27T09:53:32.415Z,21.22
2023-06-27T09:54:31.628Z,21.32
2023-06-27T09:55:31.742Z,21.38
2023-06-27T09:56:31.833Z,21.34
2023-06-27T09:57:31.974Z,21.23
2023-06-27T09:58:32.157Z,21.04
2023-06-27T09:59:33.511Z,20.83
2023-06-27T10:00:32.395Z,20.65
2023-06-27T10:01:32.492Z,20.55
2023-06-27T10:02:32.674Z,20.54
2023-06-27T10:03:32.768Z,20.63
2023-06-27T10:04:39.731Z,20.77
2023-06-27T10:05:35.763Z,20.92
2023-06-27T10:06:33.162Z,21.02
2023-06-27T10:07:33.273Z,21.10
2023-06-27T10:08:33.383Z,21.14
2023-06-27T10:09:33.511Z,21.15
2023-06-27T10:10:33.615Z,21.20
2023-06-27T10:11:33.716Z,21.20
2023-06-27T10:12:33.823Z,21.19
2023-06-27T10:13:33.969Z,21.23
2023-06-27T10:14:34.114Z,21.29
2023-06-27T10:15:34.209Z,21.32
2023-06-27T10:16:34.309Z,21.25
2023-06-27T10:17:34.444Z,21.11
2023-06-27T10:18:34.529Z,21.01
2023-06-27T10:19:34.703Z,20.97
2023-06-27T10:20:34.777Z,20.98
2023-06-27T10:21:34.893Z,20.99
2023-06-27T10:22:35.022Z,21.03
2023-06-27T10:23:35.125Z,21.15
2023-06-27T10:24:35.231Z,21.35
2023-06-27T10:25:35.440Z,21.54
2023-06-27T10:26:35.443Z,21.70
2023-06-27T10:27:35.578Z,21.79
2023-06-27T10:28:35.674Z,21.80
2023-06-27T10:29:35.781Z,21.76
2023-06-27T10:30:37.218Z,21.65
2023-06-27T10:31:35.980Z,21.52
2023-06-27T10:32:36.116Z,21.37
2023-06-27T10:33:36.210Z,21.25
2023-06-27T10:34:36.329Z,21.13
2023-06-27T10:35:36.451Z,21.04
2023-06-27T10:36:36.578Z,21.00
2023-06-27T10:37:36.709Z,20.99
2023-06-27T10:38:36.810Z,20.95
2023-06-27T10:39:36.960Z,20.83
2023-06-27T10:40:37.083Z,20.74
2023-06-27T10:41:37.196Z,20.73
2023-06-27T10:42:37.296Z,20.78
2023-06-27T10:43:37.432Z,20.85
2023-06-27T10:44:37.599Z,20.92
2023-06-27T10:45:37.808Z,20.96
2023-06-27T10:46:37.814Z,21.00
2023-06-27T10:47:37.923Z,21.11
2023-06-27T10:48:38.001Z,21.25
2023-06-27T10:49:38.152Z,21.35
2023-06-27T10:50:38.248Z,21.42
2023-06-27T10:51:38.351Z,21.40
2023-06-27T10:52:38.457Z,21.36
2023-06-27T10:53:38.576Z,21.37
2023-06-27T10:54:38.709Z,21.41
2023-06-27T10:55:38.896Z,21.39
2023-06-27T10:56:38.976Z,21.30
2023-06-27T10:57:39.081Z,21.21
2023-06-27T10:58:39.204Z,21.17
2023-06-27T10:59:39.347Z,21.19
2023-06-27T11:00:39.459Z,21.24
2023-06-27T11:01:39.656Z,21.33
2023-06-27T11:02:39.876Z,21.47
2023-06-27T11:03:39.980Z,21.60
2023-06-27T11:04:40.082Z,21.68
2023-06-27T11:05:40.108Z,21.75
2023-06-27T11:06:40.170Z,21.84
2023-06-27T11:07:40.319Z,21.91
2023-06-27T11:08:40.389Z,21.93
2023-06-27T11:09:40.595Z,21.85
2023-06-27T11:10:40.926Z,21.75
2023-06-27T11:11:40.806Z,21.72
2023-06-27T11:12:40.911Z,21.77
2023-06-27T11:13:41.214Z,21.82
2023-06-27T11:14:41.167Z,21.75
2023-06-27T11:15:41.287Z,21.64
2023-06-27T11:16:41.521Z,21.54
2023-06-27T11:17:41.569Z,21.49
2023-06-27T11:18:41.658Z,21.50
2023-06-27T11:19:41.825Z,21.49
2023-06-27T11:20:42.416Z,21.44
2023-06-27T11:21:41.997Z,21.41
2023-06-27T11:22:42.106Z,21.40
2023-06-27T11:23:42.263Z,21.40
2023-06-27T11:24:42.364Z,21.37
2023-06-27T11:25:42.580Z,21.28
2023-06-27T11:26:42.569Z,21.21
2023-06-27T11:27:42.670Z,21.22
2023-06-27T11:28:42.766Z,21.24
2023-06-27T11:29:42.940Z,21.30
2023-06-27T11:30:43.336Z,21.38
2023-06-27T11:31:43.171Z,21.45
2023-06-27T11:32:43.275Z,21.47
2023-06-27T11:33:43.394Z,21.45
2023-06-27T11:34:43.517Z,21.45
2023-06-27T11:35:43.647Z,21.48
2023-06-27T11:36:43.753Z,21.52
2023-06-27T11:37:43.858Z,21.57
2023-06-27T11:38:44.005Z,21.60
2023-06-27T11:39:44.124Z,21.63
2023-06-27T11:40:44.369Z,21.61
2023-06-27T11:41:44.385Z,21.60
2023-06-27T11:42:44.502Z,21.63
2023-06-27T11:43:44.616Z,21.66
2023-06-27T11:44:44.775Z,21.70
2023-06-27T11:45:44.824Z,21.66
2023-06-27T11:46:44.924Z,21.58
2023-06-27T11:47:45.091Z,21.57
2023-06-27T11:48:45.159Z,21.54
2023-06-27T11:49:45.306Z,21.49
2023-06-27T11:50:45.354Z,21.45
2023-06-27T11:51:45.534Z,21.44
2023-06-27T11:52:45.640Z,21.47
2023-06-27T11:53:45.772Z,21.49
2023-06-27T11:54:45.933Z,21.46
2023-06-27T11:55:46.043Z,21.44
2023-06-27T11:56:46.148Z,21.43
2023-06-27T11:57:46.247Z,21.45
2023-06-27T11:58:46.372Z,21.48
2023-06-27T11:59:46.515Z,21.49
2023-06-27T12:00:46.614Z,21.47
2023-06-27T12:01:46.842Z,21.47
2023-06-27T12:02:46.933Z,21.51
2023-06-27T12:03:47.165Z,21.49
2023-06-27T12:04:47.163Z,21.43
2023-06-27T12:05:47.415Z,21.34
2023-06-27T12:06:47.433Z,21.21
2023-06-27T12:07:47.526Z,21.14
2023-06-27T12:08:47.630Z,21.09
2023-06-27T12:09:47.772Z,21.01
2023-06-27T12:10:47.886Z,20.91
2023-06-27T12:11:47.981Z,20.80
2023-06-27T12:12:48.082Z,20.70
2023-06-27T12:13:48.175Z,20.61
2023-06-27T12:14:48.415Z,20.55
2023-06-27T12:15:48.452Z,20.49
2023-06-27T12:16:48.622Z,20.45
2023-06-27T12:17:48.760Z,20.40
2023-06-27T12:18:48.846Z,20.36
2023-06-27T12:19:48.975Z,20.36
2023-06-27T12:20:49.086Z,20.35
2023-06-27T12:21:49.191Z,20.35
2023-06-27T12:22:49.302Z,20.39
2023-06-27T12:23:49.447Z,20.45
2023-06-27T12:24:49.592Z,20.52
2023-06-27T12:25:49.653Z,20.57
2023-06-27T12:26:49.885Z,20.61
2023-06-27T12:27:49.874Z,20.64
2023-06-27T12:28:49.974Z,20.63
2023-06-27T12:29:50.193Z,20.60
2023-06-27T12:30:50.285Z,20.57
2023-06-27T12:31:50.386Z,20.57
2023-06-27T12:32:50.517Z,20.58
2023-06-27T12:33:50.604Z,20.60
2023-06-27T12:34:50.766Z,20.64
2023-06-27T12:35:50.821Z,20.69
2023-06-27T12:36:51.055Z,20.77
2023-06-27T12:37:51.069Z,20.87
2023-06-27T12:38:51.179Z,21.02
2023-06-27T12:39:51.332Z,21.19
2023-06-27T12:40:51.399Z,21.38
2023-06-27T12:41:51.590Z,21.55
2023-06-27T12:42:51.649Z,21.71
2023-06-27T12:43:51.776Z,21.83
2023-06-27T12:44:51.871Z,21.88
2023-06-27T12:45:51.969Z,21.93
2023-06-27T12:46:52.073Z,21.95
2023-06-27T12:47:52.246Z,21.92
2023-06-27T12:48:52.322Z,21.90
2023-06-27T12:49:52.508Z,21.94
2023-06-27T12:50:52.548Z,22.04
2023-06-27T12:51:52.721Z,22.17
2023-06-27T12:52:52.846Z,22.17
2023-06-27T12:53:52.971Z,22.13
2023-06-27T12:54:53.041Z,22.10
2023-06-27T12:55:53.162Z,22.06
2023-06-27T12:56:53.267Z,21.99